Terminal Aerodrome Forecast
Issued by NWS

Home | Current Version | Previous Version | Graphics & Text | Print | Product List | Glossary On
Versions: 1 2 3 4 5 6 7 8 9 10 11 12 13 14
000
FTUS43 KTOP 272336
TAFMHK
TAF
KMHK 272336Z 2800/2824 15011KT 4SM -TSRA BR SCT040CB
      TEMPO 2800/2802 24025G35KT 2SM TSRA BR BKN025CB
     FM280200 13009KT P6SM SCT025 BKN035
     FM280600 13006KT P6SM SCT025 BKN100
     FM281400 21011KT P6SM SCT035=

USA.gov is the U.S. government's official web portal to all federal, state and local government web resources and services.